Stateville, Illinois
Current Conditions -  °F | °C
As of 4:15 PM on Friday 24 Oct 2014 (Local Time) from KLOT Reporting Station
Clear Clear  
Wind Chill: 67°   Ceiling: Unl
Heat Index: 67°   Visibility: 10mi
Dew Point: 41°   Wind: 6mph
Humidity: 38%   Direction: 260°W
Pressure: 29.97"   Gusts: NA
Location:  41.552°N, 88.1116°W
Report Text: KLOT 242115Z AUTO 26005KT 10SM CLR 20/05 A2997 RMK AO2 T01970051
Loading
Personal Weather Stations






























Interactive Weather Map
Tropical Storm Tracking
New forecast layout! Learn more

10-Day Weather Forecast

Advertisements
Track Severe Weather on mobile